createdAt,value
2022-12-29T00:04:02.122Z,65496.69
2022-12-29T00:09:07.305Z,65535.50
2022-12-29T00:14:32.236Z,65548.94
2022-12-29T00:19:54.574Z,65523.78
2022-12-29T00:25:17.102Z,65532.28
2022-12-29T00:30:42.836Z,65486.47
2022-12-29T00:35:53.498Z,65481.66
2022-12-29T00:41:15.677Z,65525.47
2022-12-29T00:46:21.747Z,65498.81
2022-12-29T00:51:26.832Z,65466.84
2022-12-29T00:56:31.706Z,65532.94
2022-12-29T01:01:39.100Z,65522.28
2022-12-29T01:06:44.199Z,65489.22
2022-12-29T01:11:52.018Z,65497.13
2022-12-29T01:16:58.485Z,65488.59
2022-12-29T01:22:03.250Z,65481.31
2022-12-29T01:27:07.790Z,65467.91
2022-12-29T01:32:14.560Z,65517.38
2022-12-29T01:37:19.259Z,65508.84
2022-12-29T01:42:27.731Z,65513.13
2022-12-29T01:47:39.819Z,65516.31
2022-12-29T01:52:52.874Z,65504.78
2022-12-29T01:58:04.196Z,65555.78
2022-12-29T02:03:12.224Z,65528.66
2022-12-29T02:08:18.809Z,65569.63
2022-12-29T02:13:26.771Z,65503.72
2022-12-29T02:18:46.633Z,65599.06
2022-12-29T02:24:14.758Z,65605.47
2022-12-29T02:29:44.873Z,65559.19
2022-12-29T02:35:04.809Z,65560.66
2022-12-29T02:40:26.630Z,65547.78
2022-12-29T02:45:38.215Z,65561.31
2022-12-29T02:50:52.182Z,65572.50
2022-12-29T02:55:57.193Z,65595.44
2022-12-29T03:01:19.457Z,65563.22
2022-12-29T03:06:39.145Z,65615.94
2022-12-29T03:12:11.247Z,65540.50
2022-12-29T03:17:29.649Z,65527.72
2022-12-29T03:22:42.320Z,65558.28
2022-12-29T03:27:55.611Z,65579.88
2022-12-29T03:33:04.943Z,65518.00
2022-12-29T03:38:18.362Z,65556.06
2022-12-29T03:43:24.971Z,65544.03
2022-12-29T03:48:31.460Z,65540.75
2022-12-29T03:53:38.622Z,65589.28
2022-12-29T03:58:43.388Z,65614.44
2022-12-29T04:03:52.607Z,65546.91
2022-12-29T04:08:59.119Z,65556.31
2022-12-29T04:14:04.185Z,65571.34
2022-12-29T04:19:11.304Z,65588.94
2022-12-29T04:24:17.644Z,65585.75
2022-12-29T04:29:24.235Z,65572.81
2022-12-29T04:34:51.672Z,65562.38
2022-12-29T04:39:58.615Z,65582.97
2022-12-29T04:45:03.354Z,65630.09
2022-12-29T04:50:26.848Z,65656.25
2022-12-29T04:55:55.066Z,65658.41
2022-12-29T05:01:01.254Z,65665.88
2022-12-29T05:06:09.231Z,65651.47
2022-12-29T05:11:16.362Z,65603.34
2022-12-29T05:16:24.070Z,65639.72
2022-12-29T05:21:31.662Z,65589.47
2022-12-29T05:26:39.480Z,65691.94
2022-12-29T05:31:49.857Z,65626.19
2022-12-29T05:36:54.967Z,65648.78
2022-12-29T05:42:01.257Z,65648.59
2022-12-29T05:47:27.462Z,65637.69
2022-12-29T05:52:48.458Z,65629.56
2022-12-29T05:57:54.742Z,65586.91
2022-12-29T06:03:01.116Z,65677.84
2022-12-29T06:08:07.047Z,65678.06
2022-12-29T06:13:15.919Z,65684.25
2022-12-29T06:18:23.818Z,65625.84
2022-12-29T06:23:29.265Z,65621.38
2022-12-29T06:28:35.344Z,65635.97
2022-12-29T06:33:41.816Z,65624.03
2022-12-29T06:38:54.015Z,65670.66
2022-12-29T06:44:07.389Z,65633.84
2022-12-29T06:49:33.957Z,65687.22
2022-12-29T06:54:43.188Z,65646.66
2022-12-29T06:59:52.782Z,65663.22
2022-12-29T07:05:00.740Z,65675.94
2022-12-29T07:10:07.267Z,65666.19
2022-12-29T07:15:14.037Z,65621.47
2022-12-29T07:20:24.792Z,65658.41
2022-12-29T07:25:34.005Z,65664.19
2022-12-29T07:30:44.123Z,65680.28
2022-12-29T07:35:48.749Z,65618.72
2022-12-29T07:40:53.420Z,65677.16
2022-12-29T07:45:59.759Z,65658.94
2022-12-29T07:51:06.745Z,65705.72
2022-12-29T07:56:11.553Z,65649.31
2022-12-29T08:01:17.951Z,65684.34
2022-12-29T08:06:25.587Z,65607.16
2022-12-29T08:11:30.789Z,65623.63
2022-12-29T08:16:37.267Z,65640.78
2022-12-29T08:21:42.106Z,65679.03
2022-12-29T08:26:49.327Z,65656.63
2022-12-29T08:31:55.754Z,65681.78
2022-12-29T08:37:00.602Z,65708.56
2022-12-29T08:42:05.149Z,65727.19
2022-12-29T08:47:12.910Z,65731.44
2022-12-29T08:52:17.572Z,65737.41
2022-12-29T08:57:22.814Z,65745.31
2022-12-29T09:02:51.916Z,65719.16
2022-12-29T09:07:56.704Z,65770.72
2022-12-29T09:13:01.384Z,65745.97
2022-12-29T09:18:08.089Z,65787.00
2022-12-29T09:23:13.648Z,65798.78
2022-12-29T09:28:18.896Z,65860.78
2022-12-29T09:33:25.207Z,65780.06
2022-12-29T09:38:30.973Z,65795.56
2022-12-29T09:43:52.098Z,65791.91
2022-12-29T09:49:09.933Z,65794.59
2022-12-29T09:54:27.521Z,65802.16
2022-12-29T09:59:41.665Z,65781.22
2022-12-29T10:04:47.788Z,65862.47
2022-12-29T10:10:04.735Z,65843.66
2022-12-29T10:15:19.652Z,65885.38
2022-12-29T10:20:52.247Z,65812.75
2022-12-29T10:25:58.362Z,65815.25
2022-12-29T10:31:10.650Z,65837.34
2022-12-29T10:36:20.634Z,65871.47
2022-12-29T10:41:33.883Z,65923.97
2022-12-29T10:46:39.971Z,65908.44
2022-12-29T10:51:49.877Z,65920.13
2022-12-29T10:56:57.145Z,65909.88
2022-12-29T11:02:22.340Z,65916.56
2022-12-29T11:07:32.469Z,65958.56
2022-12-29T11:12:37.762Z,65929.13
2022-12-29T11:17:50.572Z,65961.84
2022-12-29T11:22:57.041Z,65939.91
2022-12-29T11:28:03.701Z,65949.53
2022-12-29T11:33:08.448Z,65905.16
2022-12-29T11:38:23.214Z,65885.81
2022-12-29T11:43:34.689Z,65885.91
2022-12-29T11:48:42.764Z,65889.28
2022-12-29T11:53:51.908Z,65874.66
2022-12-29T11:58:56.582Z,65939.28
2022-12-29T12:04:05.751Z,65917.00
2022-12-29T12:09:19.955Z,65950.81
2022-12-29T12:14:30.240Z,66015.91
2022-12-29T12:20:05.056Z,65964.00
2022-12-29T12:25:21.335Z,66067.84
2022-12-29T12:30:29.756Z,66018.50
2022-12-29T12:35:43.848Z,66044.81
2022-12-29T12:41:08.052Z,66041.59
2022-12-29T12:46:31.645Z,66006.34
2022-12-29T12:51:45.103Z,65996.72
2022-12-29T12:57:12.660Z,65909.41
2022-12-29T13:02:42.879Z,65975.22
2022-12-29T13:08:00.915Z,66003.22
2022-12-29T13:13:36.332Z,66008.94
2022-12-29T13:18:51.867Z,65988.25
2022-12-29T13:24:03.596Z,65971.03
2022-12-29T13:29:19.784Z,65991.81
2022-12-29T13:34:35.217Z,65974.25
2022-12-29T13:39:43.596Z,65994.94
2022-12-29T13:44:56.986Z,65994.03
2022-12-29T13:50:05.092Z,66001.53
2022-12-29T13:55:28.461Z,65942.03
2022-12-29T14:00:42.999Z,65866.13
2022-12-29T14:05:49.669Z,65854.53
2022-12-29T14:10:54.858Z,65895.06
2022-12-29T14:16:05.301Z,65854.63
2022-12-29T14:21:20.006Z,65844.72
2022-12-29T14:26:40.591Z,65856.41
2022-12-29T14:31:46.559Z,65923.34
2022-12-29T14:36:56.906Z,65892.22
2022-12-29T14:42:07.625Z,65856.50
2022-12-29T14:47:21.911Z,65846.78
2022-12-29T14:52:30.584Z,65882.78
2022-12-29T14:57:39.061Z,65861.41
2022-12-29T15:02:50.148Z,65843.66
2022-12-29T15:07:57.903Z,65796.75
2022-12-29T15:13:06.865Z,65820.03
2022-12-29T15:18:26.225Z,65808.81
2022-12-29T15:23:33.549Z,65816.31
2022-12-29T15:28:43.427Z,65815.88
2022-12-29T15:33:51.146Z,65827.72
2022-12-29T15:38:57.278Z,65770.53
2022-12-29T15:44:14.975Z,65818.66
2022-12-29T15:49:30.327Z,65793.44
2022-12-29T15:54:37.425Z,65852.66
2022-12-29T15:59:49.343Z,65804.19
2022-12-29T16:10:30.332Z,65812.22
2022-12-29T16:15:35.082Z,65787.44
2022-12-29T16:20:44.867Z,65793.97
2022-12-29T16:25:49.740Z,65782.72
2022-12-29T16:31:01.677Z,65761.44
2022-12-29T16:36:27.503Z,65772.56
2022-12-29T16:41:32.710Z,65815.41
2022-12-29T16:46:37.252Z,65780.16
2022-12-29T16:51:44.340Z,65775.88
2022-12-29T16:56:48.838Z,65748.44
2022-12-29T17:01:53.628Z,65770.88
2022-12-29T17:07:00.426Z,65748.63
2022-12-29T17:12:11.302Z,65719.69
2022-12-29T17:17:24.188Z,65797.59
2022-12-29T17:22:31.058Z,65768.84
2022-12-29T17:27:39.365Z,65796.09
2022-12-29T17:32:46.278Z,65748.97
2022-12-29T17:37:52.443Z,65777.38
2022-12-29T17:42:59.562Z,65755.75
2022-12-29T17:48:04.245Z,65759.75
2022-12-29T17:53:15.589Z,65769.38
2022-12-29T17:58:21.574Z,65722.44
2022-12-29T18:03:29.210Z,65758.59
2022-12-29T18:08:36.610Z,65728.13
2022-12-29T18:13:46.267Z,65761.44
2022-12-29T18:18:51.553Z,65773.00
2022-12-29T18:23:57.549Z,65779.41
2022-12-29T18:29:01.712Z,65751.22
2022-12-29T18:34:14.192Z,65751.13
2022-12-29T18:39:24.153Z,65795.75
2022-12-29T18:44:31.325Z,65748.44
2022-12-29T18:49:35.762Z,65743.00
2022-12-29T18:54:41.680Z,65777.81
2022-12-29T18:59:45.830Z,65762.50
2022-12-29T19:04:53.147Z,65729.41
2022-12-29T19:10:01.251Z,65785.91
2022-12-29T19:15:07.335Z,65793.50
2022-12-29T19:20:27.209Z,65796.09
2022-12-29T19:25:34.187Z,65714.25
2022-12-29T19:30:40.173Z,65740.44
2022-12-29T19:35:45.688Z,65768.19
2022-12-29T19:40:55.173Z,65744.16
2022-12-29T19:45:59.829Z,65770.34
2022-12-29T19:51:09.034Z,65739.38
2022-12-29T19:56:15.662Z,65740.09
2022-12-29T20:01:22.707Z,65727.81
2022-12-29T20:06:27.615Z,65721.66
2022-12-29T20:11:33.770Z,65760.28
2022-12-29T20:16:54.787Z,65745.31
2022-12-29T20:22:03.153Z,65757.19
2022-12-29T20:27:11.142Z,65792.81
2022-12-29T20:32:18.436Z,65765.63
2022-12-29T20:37:23.516Z,65758.78
2022-12-29T20:42:29.895Z,65788.50
2022-12-29T20:47:34.456Z,65732.59
2022-12-29T20:52:39.069Z,65765.44
2022-12-29T20:58:22.044Z,65753.69
2022-12-29T21:03:09.732Z,65755.38
2022-12-29T21:08:14.425Z,65766.06
2022-12-29T21:13:20.843Z,65806.88
2022-12-29T21:18:25.696Z,65773.63
2022-12-29T21:23:30.742Z,65774.25
2022-12-29T21:28:39.531Z,65831.03
2022-12-29T21:33:43.963Z,65818.00
2022-12-29T21:38:48.602Z,65845.34
2022-12-29T21:44:17.368Z,65885.69
2022-12-29T21:49:23.986Z,65867.19
2022-12-29T21:54:47.360Z,65832.53
2022-12-29T22:00:11.037Z,65796.63
2022-12-29T22:05:34.378Z,65830.84
2022-12-29T22:11:00.137Z,65803.59
2022-12-29T22:16:07.752Z,65828.69
2022-12-29T22:21:12.446Z,65821.13
2022-12-29T22:26:17.469Z,65819.50
2022-12-29T22:31:27.903Z,65799.31
2022-12-29T22:36:33.643Z,65785.38
2022-12-29T22:41:38.082Z,65826.03
2022-12-29T22:46:44.403Z,65846.94
2022-12-29T22:51:48.991Z,65823.81
2022-12-29T22:56:54.438Z,65881.63
2022-12-29T23:02:00.825Z,65870.41
2022-12-29T23:07:07.828Z,65853.28
2022-12-29T23:12:12.332Z,65844.81
2022-12-29T23:17:18.280Z,65850.63
2022-12-29T23:22:23.423Z,65867.72
2022-12-29T23:27:28.204Z,65825.56
2022-12-29T23:32:34.096Z,65825.50
2022-12-29T23:37:38.610Z,65834.03
2022-12-29T23:42:42.997Z,65831.47
2022-12-29T23:47:49.097Z,65876.81
2022-12-29T23:52:53.516Z,65834.66
2022-12-29T23:57:57.912Z,65821.13
